sensor_id;sensor_type;location;lat;lon;timestamp;temperature;humidity
909;DHT22;441;51.192;6.788;2023-04-03T00:00:10;20.10;51.60
909;DHT22;441;51.192;6.788;2023-04-03T00:02:38;20.10;51.60
909;DHT22;441;51.192;6.788;2023-04-03T00:05:06;20.00;51.50
909;DHT22;441;51.192;6.788;2023-04-03T00:07:33;20.00;51.60
909;DHT22;441;51.192;6.788;2023-04-03T00:10:00;20.00;51.60
909;DHT22;441;51.192;6.788;2023-04-03T00:12:27;20.00;51.60
909;DHT22;441;51.192;6.788;2023-04-03T00:14:54;20.00;51.60
909;DHT22;441;51.192;6.788;2023-04-03T00:17:21;20.00;51.60
909;DHT22;441;51.192;6.788;2023-04-03T00:19:49;20.00;51.70
909;DHT22;441;51.192;6.788;2023-04-03T00:22:16;19.90;51.60
909;DHT22;441;51.192;6.788;2023-04-03T00:24:43;19.90;51.60
909;DHT22;441;51.192;6.788;2023-04-03T00:27:10;19.90;51.60
909;DHT22;441;51.192;6.788;2023-04-03T00:29:37;19.90;51.60
909;DHT22;441;51.192;6.788;2023-04-03T00:32:04;19.90;51.60
909;DHT22;441;51.192;6.788;2023-04-03T00:34:31;19.90;51.70
909;DHT22;441;51.192;6.788;2023-04-03T00:36:59;19.90;51.70
909;DHT22;441;51.192;6.788;2023-04-03T00:39:27;19.90;51.60
909;DHT22;441;51.192;6.788;2023-04-03T00:41:53;19.80;51.60
909;DHT22;441;51.192;6.788;2023-04-03T00:44:22;19.80;51.60
909;DHT22;441;51.192;6.788;2023-04-03T00:46:49;19.80;51.60
909;DHT22;441;51.192;6.788;2023-04-03T00:49:16;19.80;51.60
909;DHT22;441;51.192;6.788;2023-04-03T00:51:43;19.80;51.60
909;DHT22;441;51.192;6.788;2023-04-03T00:54:12;19.80;51.70
909;DHT22;441;51.192;6.788;2023-04-03T00:56:39;19.80;51.70
909;DHT22;441;51.192;6.788;2023-04-03T00:59:09;19.70;51.60
909;DHT22;441;51.192;6.788;2023-04-03T01:01:37;19.70;51.60
909;DHT22;441;51.192;6.788;2023-04-03T01:04:05;19.70;51.50
909;DHT22;441;51.192;6.788;2023-04-03T01:06:35;19.70;51.60
909;DHT22;441;51.192;6.788;2023-04-03T01:09:03;19.70;51.60
909;DHT22;441;51.192;6.788;2023-04-03T01:11:32;19.70;51.60
909;DHT22;441;51.192;6.788;2023-04-03T01:13:59;19.70;51.60
909;DHT22;441;51.192;6.788;2023-04-03T01:16:27;19.70;51.60
909;DHT22;441;51.192;6.788;2023-04-03T01:18:56;19.70;51.70
909;DHT22;441;51.192;6.788;2023-04-03T01:21:42;19.60;51.60
909;DHT22;441;51.192;6.788;2023-04-03T01:24:33;19.60;51.60
909;DHT22;441;51.192;6.788;2023-04-03T01:27:04;19.60;51.60
909;DHT22;441;51.192;6.788;2023-04-03T01:29:31;19.60;51.60
909;DHT22;441;51.192;6.788;2023-04-03T01:32:01;19.60;51.60
909;DHT22;441;51.192;6.788;2023-04-03T01:34:29;19.60;51.70
909;DHT22;441;51.192;6.788;2023-04-03T01:36:56;19.60;51.60
909;DHT22;441;51.192;6.788;2023-04-03T01:39:23;19.60;51.70
909;DHT22;441;51.192;6.788;2023-04-03T01:41:51;19.50;51.60
909;DHT22;441;51.192;6.788;2023-04-03T01:44:18;19.50;51.60
909;DHT22;441;51.192;6.788;2023-04-03T01:46:45;19.50;51.60
909;DHT22;441;51.192;6.788;2023-04-03T01:49:13;19.50;51.60
909;DHT22;441;51.192;6.788;2023-04-03T01:51:40;19.50;51.60
909;DHT22;441;51.192;6.788;2023-04-03T01:54:07;19.50;51.60
909;DHT22;441;51.192;6.788;2023-04-03T01:56:34;19.50;51.70
909;DHT22;441;51.192;6.788;2023-04-03T01:59:00;19.50;51.60
909;DHT22;441;51.192;6.788;2023-04-03T02:01:27;19.50;51.60
909;DHT22;441;51.192;6.788;2023-04-03T02:03:54;19.50;51.70
909;DHT22;441;51.192;6.788;2023-04-03T02:06:22;19.40;51.60
909;DHT22;441;51.192;6.788;2023-04-03T02:08:49;19.40;51.60
909;DHT22;441;51.192;6.788;2023-04-03T02:11:16;19.40;51.60
909;DHT22;441;51.192;6.788;2023-04-03T02:13:43;19.40;51.60
909;DHT22;441;51.192;6.788;2023-04-03T02:16:10;19.40;51.60
909;DHT22;441;51.192;6.788;2023-04-03T02:18:38;19.40;51.60
909;DHT22;441;51.192;6.788;2023-04-03T02:21:05;19.40;51.70
909;DHT22;441;51.192;6.788;2023-04-03T02:23:33;19.40;51.70
909;DHT22;441;51.192;6.788;2023-04-03T02:26:09;19.30;51.70
909;DHT22;441;51.192;6.788;2023-04-03T02:28:37;19.30;51.60
909;DHT22;441;51.192;6.788;2023-04-03T02:31:05;19.40;51.70
909;DHT22;441;51.192;6.788;2023-04-03T02:33:33;19.30;51.70
909;DHT22;441;51.192;6.788;2023-04-03T02:36:01;19.30;51.70
909;DHT22;441;51.192;6.788;2023-04-03T02:38:28;19.30;51.70
909;DHT22;441;51.192;6.788;2023-04-03T02:41:01;19.30;51.60
909;DHT22;441;51.192;6.788;2023-04-03T02:43:28;19.30;51.70
909;DHT22;441;51.192;6.788;2023-04-03T02:45:55;19.30;51.70
909;DHT22;441;51.192;6.788;2023-04-03T02:48:23;19.30;51.60
909;DHT22;441;51.192;6.788;2023-04-03T02:50:51;19.30;51.70
909;DHT22;441;51.192;6.788;2023-04-03T02:53:18;19.30;51.70
909;DHT22;441;51.192;6.788;2023-04-03T02:55:45;19.20;51.60
909;DHT22;441;51.192;6.788;2023-04-03T02:58:13;19.20;51.60
909;DHT22;441;51.192;6.788;2023-04-03T03:00:41;19.20;51.60
909;DHT22;441;51.192;6.788;2023-04-03T03:03:08;19.20;51.60
909;DHT22;441;51.192;6.788;2023-04-03T03:05:35;19.20;51.60
909;DHT22;441;51.192;6.788;2023-04-03T03:08:02;19.20;51.70
909;DHT22;441;51.192;6.788;2023-04-03T03:10:28;19.20;51.60
909;DHT22;441;51.192;6.788;2023-04-03T03:12:55;19.20;51.70
909;DHT22;441;51.192;6.788;2023-04-03T03:15:24;19.20;51.70
909;DHT22;441;51.192;6.788;2023-04-03T03:17:50;19.20;51.70
909;DHT22;441;51.192;6.788;2023-04-03T03:20:17;19.20;51.70
909;DHT22;441;51.192;6.788;2023-04-03T03:22:44;19.20;51.70
909;DHT22;441;51.192;6.788;2023-04-03T03:25:11;19.20;51.80
909;DHT22;441;51.192;6.788;2023-04-03T03:27:39;19.10;51.70
909;DHT22;441;51.192;6.788;2023-04-03T03:30:07;19.10;51.70
909;DHT22;441;51.192;6.788;2023-04-03T03:32:35;19.10;51.80
909;DHT22;441;51.192;6.788;2023-04-03T03:35:02;19.10;51.70
909;DHT22;441;51.192;6.788;2023-04-03T03:37:30;19.10;51.80
909;DHT22;441;51.192;6.788;2023-04-03T03:39:56;19.10;51.80
909;DHT22;441;51.192;6.788;2023-04-03T03:42:23;19.10;51.80
909;DHT22;441;51.192;6.788;2023-04-03T03:44:50;19.10;51.90
909;DHT22;441;51.192;6.788;2023-04-03T03:47:17;19.00;51.80
909;DHT22;441;51.192;6.788;2023-04-03T03:49:45;19.10;51.90
909;DHT22;441;51.192;6.788;2023-04-03T03:52:12;19.00;51.90
909;DHT22;441;51.192;6.788;2023-04-03T03:54:39;19.10;52.00
909;DHT22;441;51.192;6.788;2023-04-03T03:57:06;19.00;51.90
909;DHT22;441;51.192;6.788;2023-04-03T03:59:33;19.00;51.90
909;DHT22;441;51.192;6.788;2023-04-03T04:02:00;19.00;52.00
909;DHT22;441;51.192;6.788;2023-04-03T04:04:27;19.00;52.00
909;DHT22;441;51.192;6.788;2023-04-03T04:06:56;19.00;52.00
909;DHT22;441;51.192;6.788;2023-04-03T04:09:22;19.00;52.00
909;DHT22;441;51.192;6.788;2023-04-03T04:11:49;19.00;52.00
909;DHT22;441;51.192;6.788;2023-04-03T04:14:16;19.00;52.00
909;DHT22;441;51.192;6.788;2023-04-03T04:16:43;19.00;52.00
909;DHT22;441;51.192;6.788;2023-04-03T04:19:10;19.00;52.10
909;DHT22;441;51.192;6.788;2023-04-03T04:21:37;19.00;52.20
909;DHT22;441;51.192;6.788;2023-04-03T04:24:06;19.00;53.10
909;DHT22;441;51.192;6.788;2023-04-03T04:26:34;19.00;54.10
909;DHT22;441;51.192;6.788;2023-04-03T04:29:01;19.00;54.90
909;DHT22;441;51.192;6.788;2023-04-03T04:31:28;19.10;56.20
909;DHT22;441;51.192;6.788;2023-04-03T04:33:54;19.10;57.60
909;DHT22;441;51.192;6.788;2023-04-03T04:36:21;19.10;59.10
909;DHT22;441;51.192;6.788;2023-04-03T04:38:48;19.10;61.00
909;DHT22;441;51.192;6.788;2023-04-03T04:41:19;19.10;64.00
909;DHT22;441;51.192;6.788;2023-04-03T04:43:47;19.00;64.20
909;DHT22;441;51.192;6.788;2023-04-03T04:46:14;19.10;63.90
909;DHT22;441;51.192;6.788;2023-04-03T04:48:41;19.00;63.20
909;DHT22;441;51.192;6.788;2023-04-03T04:51:08;19.10;62.80
909;DHT22;441;51.192;6.788;2023-04-03T04:53:35;19.10;62.30
909;DHT22;441;51.192;6.788;2023-04-03T04:56:03;19.00;61.80
909;DHT22;441;51.192;6.788;2023-04-03T04:58:31;19.00;61.30
909;DHT22;441;51.192;6.788;2023-04-03T05:00:59;19.00;60.90
909;DHT22;441;51.192;6.788;2023-04-03T05:03:26;19.00;60.30
909;DHT22;441;51.192;6.788;2023-04-03T05:05:53;19.00;60.10
909;DHT22;441;51.192;6.788;2023-04-03T05:08:21;19.00;59.90
909;DHT22;441;51.192;6.788;2023-04-03T05:10:48;19.00;59.60
909;DHT22;441;51.192;6.788;2023-04-03T05:13:15;19.00;59.40
909;DHT22;441;51.192;6.788;2023-04-03T05:15:43;19.00;59.80
909;DHT22;441;51.192;6.788;2023-04-03T05:18:11;19.00;59.00
909;DHT22;441;51.192;6.788;2023-04-03T05:20:38;19.00;58.90
909;DHT22;441;51.192;6.788;2023-04-03T05:23:05;19.00;58.70
909;DHT22;441;51.192;6.788;2023-04-03T05:25:32;18.90;59.00
909;DHT22;441;51.192;6.788;2023-04-03T05:27:59;19.00;58.30
909;DHT22;441;51.192;6.788;2023-04-03T05:30:26;18.90;58.10
909;DHT22;441;51.192;6.788;2023-04-03T05:32:54;19.00;58.00
909;DHT22;441;51.192;6.788;2023-04-03T05:35:21;18.90;57.80
909;DHT22;441;51.192;6.788;2023-04-03T05:37:48;18.90;57.70
909;DHT22;441;51.192;6.788;2023-04-03T05:40:15;18.90;57.60
909;DHT22;441;51.192;6.788;2023-04-03T05:42:42;18.90;57.50
909;DHT22;441;51.192;6.788;2023-04-03T05:45:10;18.90;57.40
909;DHT22;441;51.192;6.788;2023-04-03T05:47:37;18.90;57.30
909;DHT22;441;51.192;6.788;2023-04-03T05:50:06;18.90;57.20
909;DHT22;441;51.192;6.788;2023-04-03T05:52:36;18.90;57.10
909;DHT22;441;51.192;6.788;2023-04-03T05:55:05;18.90;57.00
909;DHT22;441;51.192;6.788;2023-04-03T05:57:32;18.90;56.90
909;DHT22;441;51.192;6.788;2023-04-03T05:59:59;18.90;56.90
909;DHT22;441;51.192;6.788;2023-04-03T06:02:25;18.90;56.80
909;DHT22;441;51.192;6.788;2023-04-03T06:04:52;18.80;56.70
909;DHT22;441;51.192;6.788;2023-04-03T06:07:23;18.80;56.60
909;DHT22;441;51.192;6.788;2023-04-03T06:09:54;18.80;56.50
909;DHT22;441;51.192;6.788;2023-04-03T06:12:21;18.80;56.40
909;DHT22;441;51.192;6.788;2023-04-03T06:14:48;18.80;56.40
909;DHT22;441;51.192;6.788;2023-04-03T06:17:16;18.80;56.30
909;DHT22;441;51.192;6.788;2023-04-03T06:19:43;18.80;56.20
909;DHT22;441;51.192;6.788;2023-04-03T06:22:10;18.80;56.20
909;DHT22;441;51.192;6.788;2023-04-03T06:24:39;18.80;56.20
909;DHT22;441;51.192;6.788;2023-04-03T06:27:07;18.80;56.10
909;DHT22;441;51.192;6.788;2023-04-03T06:29:34;18.80;56.00
909;DHT22;441;51.192;6.788;2023-04-03T06:32:00;18.80;56.00
909;DHT22;441;51.192;6.788;2023-04-03T06:34:27;18.80;56.00
909;DHT22;441;51.192;6.788;2023-04-03T06:36:54;18.80;55.90
909;DHT22;441;51.192;6.788;2023-04-03T06:39:22;18.80;55.90
909;DHT22;441;51.192;6.788;2023-04-03T06:41:51;18.80;55.80
909;DHT22;441;51.192;6.788;2023-04-03T06:44:18;18.80;55.80
909;DHT22;441;51.192;6.788;2023-04-03T06:46:45;18.80;55.80
909;DHT22;441;51.192;6.788;2023-04-03T06:49:13;18.70;55.70
909;DHT22;441;51.192;6.788;2023-04-03T06:51:40;18.80;55.70
909;DHT22;441;51.192;6.788;2023-04-03T06:54:07;18.70;55.60
909;DHT22;441;51.192;6.788;2023-04-03T06:56:35;18.70;55.50
909;DHT22;441;51.192;6.788;2023-04-03T06:59:03;18.70;55.50
909;DHT22;441;51.192;6.788;2023-04-03T07:01:30;18.70;55.50
909;DHT22;441;51.192;6.788;2023-04-03T07:03:58;18.70;55.50
909;DHT22;441;51.192;6.788;2023-04-03T07:06:25;18.70;55.40
909;DHT22;441;51.192;6.788;2023-04-03T07:08:53;18.70;55.30
909;DHT22;441;51.192;6.788;2023-04-03T07:11:20;18.70;55.30
909;DHT22;441;51.192;6.788;2023-04-03T07:13:47;18.70;55.30
909;DHT22;441;51.192;6.788;2023-04-03T07:16:16;18.70;55.30
909;DHT22;441;51.192;6.788;2023-04-03T07:18:43;18.70;55.20
909;DHT22;441;51.192;6.788;2023-04-03T07:21:10;18.70;55.20
909;DHT22;441;51.192;6.788;2023-04-03T07:23:37;18.70;55.20
909;DHT22;441;51.192;6.788;2023-04-03T07:26:04;18.70;55.20
909;DHT22;441;51.192;6.788;2023-04-03T07:28:32;18.70;55.10
909;DHT22;441;51.192;6.788;2023-04-03T07:31:01;18.70;55.10
909;DHT22;441;51.192;6.788;2023-04-03T07:33:30;18.70;55.10
909;DHT22;441;51.192;6.788;2023-04-03T07:35:57;18.60;55.00
909;DHT22;441;51.192;6.788;2023-04-03T07:38:24;18.70;55.00
909;DHT22;441;51.192;6.788;2023-04-03T07:40:51;18.70;55.00
909;DHT22;441;51.192;6.788;2023-04-03T07:43:19;18.60;54.90
909;DHT22;441;51.192;6.788;2023-04-03T07:45:47;18.70;55.00
909;DHT22;441;51.192;6.788;2023-04-03T07:48:16;18.60;54.90
909;DHT22;441;51.192;6.788;2023-04-03T07:50:45;18.60;54.90
909;DHT22;441;51.192;6.788;2023-04-03T07:53:12;18.60;54.80
909;DHT22;441;51.192;6.788;2023-04-03T07:55:39;18.60;54.80
909;DHT22;441;51.192;6.788;2023-04-03T07:58:09;18.60;54.80
909;DHT22;441;51.192;6.788;2023-04-03T08:00:37;18.60;54.80
909;DHT22;441;51.192;6.788;2023-04-03T08:03:05;18.60;54.70
909;DHT22;441;51.192;6.788;2023-04-03T08:05:36;18.60;54.80
909;DHT22;441;51.192;6.788;2023-04-03T08:08:04;18.60;54.70
909;DHT22;441;51.192;6.788;2023-04-03T08:10:32;18.60;54.70
909;DHT22;441;51.192;6.788;2023-04-03T08:12:59;18.60;54.60
909;DHT22;441;51.192;6.788;2023-04-03T08:15:26;18.60;54.60
909;DHT22;441;51.192;6.788;2023-04-03T08:17:54;18.60;54.60
909;DHT22;441;51.192;6.788;2023-04-03T08:20:21;18.50;54.50
909;DHT22;441;51.192;6.788;2023-04-03T08:22:48;18.60;54.60
909;DHT22;441;51.192;6.788;2023-04-03T08:25:16;18.50;54.50
909;DHT22;441;51.192;6.788;2023-04-03T08:27:44;18.60;54.60
909;DHT22;441;51.192;6.788;2023-04-03T08:30:12;18.50;54.40
909;DHT22;441;51.192;6.788;2023-04-03T08:32:39;18.60;54.50
909;DHT22;441;51.192;6.788;2023-04-03T08:35:08;18.60;54.50
909;DHT22;441;51.192;6.788;2023-04-03T08:37:35;18.50;54.40
909;DHT22;441;51.192;6.788;2023-04-03T08:40:03;18.60;54.40
909;DHT22;441;51.192;6.788;2023-04-03T08:42:40;18.50;54.30
909;DHT22;441;51.192;6.788;2023-04-03T08:45:13;18.50;54.30
909;DHT22;441;51.192;6.788;2023-04-03T08:47:45;18.50;54.20
909;DHT22;441;51.192;6.788;2023-04-03T08:50:16;18.50;54.30
909;DHT22;441;51.192;6.788;2023-04-03T08:52:46;18.50;54.20
909;DHT22;441;51.192;6.788;2023-04-03T08:55:22;18.50;54.20
909;DHT22;441;51.192;6.788;2023-04-03T08:57:53;18.50;54.20
909;DHT22;441;51.192;6.788;2023-04-03T09:00:25;18.50;54.20
909;DHT22;441;51.192;6.788;2023-04-03T09:02:54;18.50;54.20
909;DHT22;441;51.192;6.788;2023-04-03T09:05:32;18.50;54.20
909;DHT22;441;51.192;6.788;2023-04-03T09:08:05;18.50;54.10
909;DHT22;441;51.192;6.788;2023-04-03T09:10:35;18.50;54.10
909;DHT22;441;51.192;6.788;2023-04-03T09:13:08;18.50;54.10
909;DHT22;441;51.192;6.788;2023-04-03T09:15:38;18.50;54.10
909;DHT22;441;51.192;6.788;2023-04-03T09:18:13;18.50;54.10
909;DHT22;441;51.192;6.788;2023-04-03T09:20:46;18.50;54.10
909;DHT22;441;51.192;6.788;2023-04-03T09:23:21;18.50;54.10
909;DHT22;441;51.192;6.788;2023-04-03T09:25:51;18.50;54.10
909;DHT22;441;51.192;6.788;2023-04-03T09:28:21;18.50;54.00
909;DHT22;441;51.192;6.788;2023-04-03T09:30:48;18.50;54.00
909;DHT22;441;51.192;6.788;2023-04-03T09:33:16;18.50;54.00
909;DHT22;441;51.192;6.788;2023-04-03T09:35:43;18.50;54.00
909;DHT22;441;51.192;6.788;2023-04-03T09:38:19;18.50;54.00
909;DHT22;441;51.192;6.788;2023-04-03T09:40:48;18.50;54.00
909;DHT22;441;51.192;6.788;2023-04-03T09:43:30;18.50;54.00
909;DHT22;441;51.192;6.788;2023-04-03T09:46:29;18.50;53.90
909;DHT22;441;51.192;6.788;2023-04-03T09:48:57;18.50;53.90
909;DHT22;441;51.192;6.788;2023-04-03T09:51:26;18.50;53.90
909;DHT22;441;51.192;6.788;2023-04-03T09:53:54;18.50;53.90
909;DHT22;441;51.192;6.788;2023-04-03T09:56:24;18.50;53.80
909;DHT22;441;51.192;6.788;2023-04-03T09:59:07;18.50;53.80
909;DHT22;441;51.192;6.788;2023-04-03T10:01:36;18.50;53.80
909;DHT22;441;51.192;6.788;2023-04-03T10:04:09;18.50;53.80
909;DHT22;441;51.192;6.788;2023-04-03T10:06:38;18.40;53.70
909;DHT22;441;51.192;6.788;2023-04-03T10:09:18;18.40;53.70
909;DHT22;441;51.192;6.788;2023-04-03T10:12:00;18.40;53.70
909;DHT22;441;51.192;6.788;2023-04-03T10:14:33;18.40;54.20
909;DHT22;441;51.192;6.788;2023-04-03T10:17:15;18.40;53.70
909;DHT22;441;51.192;6.788;2023-04-03T10:19:46;18.40;53.70
909;DHT22;441;51.192;6.788;2023-04-03T10:22:21;18.40;53.60
909;DHT22;441;51.192;6.788;2023-04-03T10:24:52;18.40;53.60
909;DHT22;441;51.192;6.788;2023-04-03T10:27:28;18.50;53.60
909;DHT22;441;51.192;6.788;2023-04-03T10:30:08;18.40;53.60
909;DHT22;441;51.192;6.788;2023-04-03T10:32:46;18.40;53.60
909;DHT22;441;51.192;6.788;2023-04-03T10:35:25;18.40;53.60
909;DHT22;441;51.192;6.788;2023-04-03T10:38:03;18.40;53.60
909;DHT22;441;51.192;6.788;2023-04-03T10:40:39;18.40;53.60
909;DHT22;441;51.192;6.788;2023-04-03T10:43:16;18.40;53.50
909;DHT22;441;51.192;6.788;2023-04-03T10:45:55;18.40;53.50
909;DHT22;441;51.192;6.788;2023-04-03T10:48:33;18.40;53.50
909;DHT22;441;51.192;6.788;2023-04-03T10:51:10;18.40;53.50
909;DHT22;441;51.192;6.788;2023-04-03T10:53:41;18.40;53.40
909;DHT22;441;51.192;6.788;2023-04-03T10:56:15;18.40;53.40
909;DHT22;441;51.192;6.788;2023-04-03T10:58:49;18.40;53.40
909;DHT22;441;51.192;6.788;2023-04-03T11:01:23;18.40;53.40
909;DHT22;441;51.192;6.788;2023-04-03T11:03:56;18.40;53.40
909;DHT22;441;51.192;6.788;2023-04-03T11:06:26;18.40;53.40
909;DHT22;441;51.192;6.788;2023-04-03T11:08:57;18.40;53.40
909;DHT22;441;51.192;6.788;2023-04-03T11:11:31;18.40;53.40
909;DHT22;441;51.192;6.788;2023-04-03T11:14:02;18.40;53.40
909;DHT22;441;51.192;6.788;2023-04-03T11:16:35;18.40;53.30
909;DHT22;441;51.192;6.788;2023-04-03T11:19:08;18.40;53.30
909;DHT22;441;51.192;6.788;2023-04-03T11:21:41;18.40;53.30
909;DHT22;441;51.192;6.788;2023-04-03T11:24:17;18.40;53.20
909;DHT22;441;51.192;6.788;2023-04-03T11:26:48;18.40;53.20
909;DHT22;441;51.192;6.788;2023-04-03T11:29:20;18.40;53.30
909;DHT22;441;51.192;6.788;2023-04-03T11:32:02;18.40;53.20
909;DHT22;441;51.192;6.788;2023-04-03T11:34:34;18.40;53.20
909;DHT22;441;51.192;6.788;2023-04-03T11:37:12;18.40;53.20
909;DHT22;441;51.192;6.788;2023-04-03T11:39:44;18.40;53.20
909;DHT22;441;51.192;6.788;2023-04-03T11:42:15;18.40;53.20
909;DHT22;441;51.192;6.788;2023-04-03T11:44:43;18.40;53.20
909;DHT22;441;51.192;6.788;2023-04-03T11:47:12;18.30;53.10
909;DHT22;441;51.192;6.788;2023-04-03T11:50:03;18.30;53.10
909;DHT22;441;51.192;6.788;2023-04-03T11:52:59;18.40;53.10
909;DHT22;441;51.192;6.788;2023-04-03T11:55:52;18.40;53.10
909;DHT22;441;51.192;6.788;2023-04-03T11:58:21;18.40;53.10
909;DHT22;441;51.192;6.788;2023-04-03T12:01:06;18.40;53.10
909;DHT22;441;51.192;6.788;2023-04-03T12:04:03;18.30;53.00
909;DHT22;441;51.192;6.788;2023-04-03T12:10:18;18.40;53.00
909;DHT22;441;51.192;6.788;2023-04-03T12:12:59;18.40;52.90
909;DHT22;441;51.192;6.788;2023-04-03T12:15:52;18.40;52.90
909;DHT22;441;51.192;6.788;2023-04-03T12:18:57;18.40;52.90
909;DHT22;441;51.192;6.788;2023-04-03T12:24:26;18.40;53.00
909;DHT22;441;51.192;6.788;2023-04-03T12:27:07;18.40;53.00
909;DHT22;441;51.192;6.788;2023-04-03T12:29:39;18.40;52.90
909;DHT22;441;51.192;6.788;2023-04-03T12:32:19;18.40;52.90
909;DHT22;441;51.192;6.788;2023-04-03T12:35:03;18.40;52.90
909;DHT22;441;51.192;6.788;2023-04-03T12:40:35;18.50;52.90
909;DHT22;441;51.192;6.788;2023-04-03T12:43:26;18.50;52.90
909;DHT22;441;51.192;6.788;2023-04-03T12:46:02;18.50;52.90
909;DHT22;441;51.192;6.788;2023-04-03T12:48:32;18.50;52.90
909;DHT22;441;51.192;6.788;2023-04-03T12:51:01;18.50;52.90
909;DHT22;441;51.192;6.788;2023-04-03T12:53:32;18.50;52.90
909;DHT22;441;51.192;6.788;2023-04-03T12:56:22;18.50;52.90
909;DHT22;441;51.192;6.788;2023-04-03T12:58:51;18.50;52.90
909;DHT22;441;51.192;6.788;2023-04-03T13:01:21;18.50;52.80
909;DHT22;441;51.192;6.788;2023-04-03T13:03:52;18.60;52.90
909;DHT22;441;51.192;6.788;2023-04-03T13:06:22;18.50;52.80
909;DHT22;441;51.192;6.788;2023-04-03T13:08:50;18.60;52.90
909;DHT22;441;51.192;6.788;2023-04-03T13:11:18;18.60;52.80
909;DHT22;441;51.192;6.788;2023-04-03T13:13:59;18.60;52.80
909;DHT22;441;51.192;6.788;2023-04-03T13:16:26;18.60;52.80
909;DHT22;441;51.192;6.788;2023-04-03T13:18:54;18.60;52.70
909;DHT22;441;51.192;6.788;2023-04-03T13:21:24;18.60;52.70
909;DHT22;441;51.192;6.788;2023-04-03T13:23:55;18.70;52.80
909;DHT22;441;51.192;6.788;2023-04-03T13:26:25;18.70;52.80
909;DHT22;441;51.192;6.788;2023-04-03T13:28:54;18.70;52.70
909;DHT22;441;51.192;6.788;2023-04-03T13:31:27;18.70;52.70
909;DHT22;441;51.192;6.788;2023-04-03T13:33:59;18.70;52.80
909;DHT22;441;51.192;6.788;2023-04-03T13:36:31;18.70;53.20
909;DHT22;441;51.192;6.788;2023-04-03T13:39:02;18.70;52.70
909;DHT22;441;51.192;6.788;2023-04-03T13:41:32;18.70;53.20
909;DHT22;441;51.192;6.788;2023-04-03T13:44:31;18.80;52.70
909;DHT22;441;51.192;6.788;2023-04-03T13:47:16;18.80;52.60
909;DHT22;441;51.192;6.788;2023-04-03T13:49:45;18.80;52.60
909;DHT22;441;51.192;6.788;2023-04-03T13:52:22;18.80;52.60
909;DHT22;441;51.192;6.788;2023-04-03T13:54:54;18.80;52.60
909;DHT22;441;51.192;6.788;2023-04-03T13:57:22;18.80;52.60
909;DHT22;441;51.192;6.788;2023-04-03T13:59:49;18.90;52.60
909;DHT22;441;51.192;6.788;2023-04-03T14:02:21;18.90;52.60
909;DHT22;441;51.192;6.788;2023-04-03T14:04:52;18.90;52.50
909;DHT22;441;51.192;6.788;2023-04-03T14:07:22;18.90;52.50
909;DHT22;441;51.192;6.788;2023-04-03T14:09:49;18.90;52.50
909;DHT22;441;51.192;6.788;2023-04-03T14:12:19;18.90;52.40
909;DHT22;441;51.192;6.788;2023-04-03T14:14:47;18.90;52.40
909;DHT22;441;51.192;6.788;2023-04-03T14:17:19;18.90;52.30
909;DHT22;441;51.192;6.788;2023-04-03T14:19:47;19.00;52.40
909;DHT22;441;51.192;6.788;2023-04-03T14:22:19;19.00;52.40
909;DHT22;441;51.192;6.788;2023-04-03T14:24:48;19.00;52.30
909;DHT22;441;51.192;6.788;2023-04-03T14:27:19;19.10;52.20
909;DHT22;441;51.192;6.788;2023-04-03T14:29:47;19.10;51.80
909;DHT22;441;51.192;6.788;2023-04-03T14:32:16;19.20;51.60
909;DHT22;441;51.192;6.788;2023-04-03T14:34:46;19.30;51.40
909;DHT22;441;51.192;6.788;2023-04-03T14:37:16;19.30;50.80
909;DHT22;441;51.192;6.788;2023-04-03T14:39:44;19.40;50.60
909;DHT22;441;51.192;6.788;2023-04-03T14:42:13;19.50;50.30
909;DHT22;441;51.192;6.788;2023-04-03T14:44:40;19.50;50.20
909;DHT22;441;51.192;6.788;2023-04-03T14:47:10;19.60;50.60
909;DHT22;441;51.192;6.788;2023-04-03T14:49:37;19.70;50.40
909;DHT22;441;51.192;6.788;2023-04-03T14:52:06;19.70;50.20
909;DHT22;441;51.192;6.788;2023-04-03T14:54:43;19.80;50.10
909;DHT22;441;51.192;6.788;2023-04-03T14:57:13;19.80;49.90
909;DHT22;441;51.192;6.788;2023-04-03T14:59:40;19.80;49.50
909;DHT22;441;51.192;6.788;2023-04-03T15:02:24;19.80;49.50
909;DHT22;441;51.192;6.788;2023-04-03T15:04:51;19.90;49.80
909;DHT22;441;51.192;6.788;2023-04-03T15:07:19;20.00;49.30
909;DHT22;441;51.192;6.788;2023-04-03T15:09:46;20.00;49.30
909;DHT22;441;51.192;6.788;2023-04-03T15:12:13;20.00;49.00
909;DHT22;441;51.192;6.788;2023-04-03T15:14:40;20.10;48.90
909;DHT22;441;51.192;6.788;2023-04-03T15:17:13;20.10;48.80
909;DHT22;441;51.192;6.788;2023-04-03T15:19:42;20.10;48.80
909;DHT22;441;51.192;6.788;2023-04-03T15:22:13;20.20;48.30
909;DHT22;441;51.192;6.788;2023-04-03T15:24:42;20.20;48.20
909;DHT22;441;51.192;6.788;2023-04-03T15:27:09;20.20;48.00
909;DHT22;441;51.192;6.788;2023-04-03T15:29:36;20.20;48.10
909;DHT22;441;51.192;6.788;2023-04-03T15:32:04;20.30;48.30
909;DHT22;441;51.192;6.788;2023-04-03T15:34:31;20.20;48.40
909;DHT22;441;51.192;6.788;2023-04-03T15:36:58;20.20;48.50
909;DHT22;441;51.192;6.788;2023-04-03T15:39:25;20.20;48.70
909;DHT22;441;51.192;6.788;2023-04-03T15:41:54;20.20;48.80
909;DHT22;441;51.192;6.788;2023-04-03T15:44:22;20.10;48.70
909;DHT22;441;51.192;6.788;2023-04-03T15:46:49;20.20;48.90
909;DHT22;441;51.192;6.788;2023-04-03T15:49:17;20.10;48.90
909;DHT22;441;51.192;6.788;2023-04-03T15:51:44;20.10;49.10
909;DHT22;441;51.192;6.788;2023-04-03T15:54:11;20.10;49.10
909;DHT22;441;51.192;6.788;2023-04-03T15:56:38;20.10;49.20
909;DHT22;441;51.192;6.788;2023-04-03T15:59:06;20.10;49.20
909;DHT22;441;51.192;6.788;2023-04-03T16:01:33;20.10;49.30
909;DHT22;441;51.192;6.788;2023-04-03T16:04:00;20.00;49.30
909;DHT22;441;51.192;6.788;2023-04-03T16:06:27;20.00;49.40
909;DHT22;441;51.192;6.788;2023-04-03T16:08:56;20.00;49.40
909;DHT22;441;51.192;6.788;2023-04-03T16:11:23;20.00;49.40
909;DHT22;441;51.192;6.788;2023-04-03T16:13:51;20.00;49.50
909;DHT22;441;51.192;6.788;2023-04-03T16:16:20;20.00;49.60
909;DHT22;441;51.192;6.788;2023-04-03T16:18:47;20.00;49.60
909;DHT22;441;51.192;6.788;2023-04-03T16:21:15;20.00;49.60
909;DHT22;441;51.192;6.788;2023-04-03T16:23:43;20.00;49.60
909;DHT22;441;51.192;6.788;2023-04-03T16:26:10;20.00;49.60
909;DHT22;441;51.192;6.788;2023-04-03T16:28:37;20.00;49.50
909;DHT22;441;51.192;6.788;2023-04-03T16:31:05;19.90;49.40
909;DHT22;441;51.192;6.788;2023-04-03T16:33:34;19.90;49.40
909;DHT22;441;51.192;6.788;2023-04-03T16:36:04;19.90;49.50
909;DHT22;441;51.192;6.788;2023-04-03T16:38:31;19.90;49.50
909;DHT22;441;51.192;6.788;2023-04-03T16:40:58;19.90;49.70
909;DHT22;441;51.192;6.788;2023-04-03T16:43:30;19.90;49.60
909;DHT22;441;51.192;6.788;2023-04-03T16:45:57;19.90;49.60
909;DHT22;441;51.192;6.788;2023-04-03T16:48:24;19.90;49.60
909;DHT22;441;51.192;6.788;2023-04-03T16:50:52;19.80;49.50
909;DHT22;441;51.192;6.788;2023-04-03T16:53:20;19.80;49.50
909;DHT22;441;51.192;6.788;2023-04-03T16:55:47;19.80;50.10
909;DHT22;441;51.192;6.788;2023-04-03T16:58:14;19.70;49.50
909;DHT22;441;51.192;6.788;2023-04-03T17:00:41;19.70;49.50